Xilin Hot, China
Current Conditions -  °F | °C
As of 3:30 PM on Thursday 23 Oct 2014 (Local Time) from ZBAA Reporting Station
Haze Haze  
Wind Chill: 61°   Ceiling: Unl
Heat Index: 61°   Visibility: 2.6mi
Dew Point: 46°   Wind: 4mph
Humidity: 59%   Direction: 110°ESE
Pressure: 29.88"   Gusts: NA
Location:  43.95°N, 116.07°E
Report Text: ZBAA 230730Z 11002MPS 060V140 4200 HZ NSC 16/08 Q1012 NOSIG
Loading
Personal Weather Stations






























Interactive Weather Map
Tropical Storm Tracking
New forecast layout! Learn more

10-Day Weather Forecast

Advertisements
Track Severe Weather on mobile